createdAt,value
2019-03-24T00:02:18.706Z,10.58
2019-03-24T00:04:47.193Z,10.53
2019-03-24T00:07:15.624Z,9.85
2019-03-24T00:09:44.075Z,9.10
2019-03-24T00:12:12.508Z,9.35
2019-03-24T00:14:40.960Z,9.08
2019-03-24T00:17:10.562Z,9.58
2019-03-24T00:19:39.054Z,9.60
2019-03-24T00:22:07.475Z,9.23
2019-03-24T00:24:35.897Z,9.00
2019-03-24T00:27:04.377Z,8.55
2019-03-24T00:29:32.783Z,9.73
2019-03-24T00:32:01.241Z,8.38
2019-03-24T00:34:29.675Z,8.73
2019-03-24T00:36:58.123Z,8.88
2019-03-24T00:39:26.564Z,8.58
2019-03-24T00:41:55.011Z,8.25
2019-03-24T00:44:23.449Z,7.85
2019-03-24T00:47:11.249Z,8.03
2019-03-24T00:49:39.709Z,8.33
2019-03-24T00:52:08.125Z,7.22
2019-03-24T00:54:36.588Z,7.65
2019-03-24T00:57:05.005Z,8.35
2019-03-24T00:59:33.444Z,7.85
2019-03-24T01:02:04.644Z,7.17
2019-03-24T01:04:33.079Z,7.17
2019-03-24T01:07:01.542Z,7.85
2019-03-24T01:09:29.968Z,6.05
2019-03-24T01:11:58.431Z,6.40
2019-03-24T01:14:26.859Z,6.30
2019-03-24T01:16:55.334Z,5.97
2019-03-24T01:19:23.754Z,5.72
2019-03-24T01:21:52.184Z,5.50
2019-03-24T01:24:20.639Z,5.37
2019-03-24T01:26:49.079Z,6.45
2019-03-24T01:29:17.515Z,4.37
2019-03-24T01:31:45.948Z,4.00
2019-03-24T01:34:14.437Z,4.10
2019-03-24T01:36:42.877Z,3.58
2019-03-24T01:39:11.327Z,4.17
2019-03-24T01:41:39.772Z,4.25
2019-03-24T01:44:08.200Z,4.58
2019-03-24T01:46:36.673Z,3.50
2019-03-24T01:49:05.094Z,4.03
2019-03-24T01:51:33.560Z,3.65
2019-03-24T01:54:02.013Z,3.67
2019-03-24T01:56:30.440Z,3.83
2019-03-24T01:58:58.905Z,3.58
2019-03-24T02:01:27.332Z,3.45
2019-03-24T02:03:55.776Z,2.83
2019-03-24T02:06:24.200Z,3.27
2019-03-24T02:08:52.651Z,2.77
2019-03-24T02:11:21.072Z,2.72
2019-03-24T02:13:49.514Z,3.05
2019-03-24T02:16:17.971Z,3.00
2019-03-24T02:18:46.427Z,3.42
2019-03-24T02:21:14.883Z,3.02
2019-03-24T02:23:43.301Z,3.50
2019-03-24T02:26:31.108Z,3.10
2019-03-24T02:28:59.519Z,3.05
2019-03-24T02:31:27.958Z,2.72
2019-03-24T02:33:56.364Z,2.40
2019-03-24T02:36:44.159Z,2.02
2019-03-24T02:39:12.581Z,2.90
2019-03-24T02:41:41.018Z,2.67
2019-03-24T02:44:09.458Z,3.05
2019-03-24T02:46:37.868Z,2.42
2019-03-24T02:49:06.296Z,2.98
2019-03-24T02:51:34.830Z,2.25
2019-03-24T02:54:03.254Z,2.65
2019-03-24T02:56:31.664Z,2.27
2019-03-24T02:59:20.254Z,2.87
2019-03-24T03:01:48.666Z,3.20
2019-03-24T03:04:17.111Z,2.72
2019-03-24T03:06:45.528Z,2.02
2019-03-24T03:09:13.969Z,2.25
2019-03-24T03:11:42.430Z,2.30
2019-03-24T03:14:10.825Z,2.37
2019-03-24T03:16:39.528Z,2.70
2019-03-24T03:19:08.023Z,2.55
2019-03-24T03:21:36.464Z,2.22
2019-03-24T03:24:04.877Z,3.17
2019-03-24T03:26:33.313Z,2.77
2019-03-24T03:29:01.731Z,3.02
2019-03-24T03:31:30.140Z,2.90
2019-03-24T03:33:58.575Z,2.60
2019-03-24T03:36:27.010Z,2.98
2019-03-24T03:38:55.434Z,2.30
2019-03-24T03:41:23.853Z,2.70
2019-03-24T03:43:52.301Z,2.55
2019-03-24T03:46:20.725Z,2.22
2019-03-24T03:48:49.160Z,2.80
2019-03-24T03:51:17.597Z,2.55
2019-03-24T03:53:46.010Z,2.40
2019-03-24T03:56:14.444Z,2.55
2019-03-24T03:58:42.858Z,2.87
2019-03-24T04:01:11.289Z,2.22
2019-03-24T04:03:39.718Z,2.60
2019-03-24T04:06:08.149Z,2.08
2019-03-24T04:08:36.559Z,1.72
2019-03-24T04:11:04.999Z,2.55
2019-03-24T04:13:33.418Z,2.52
2019-03-24T04:16:01.849Z,2.17
2019-03-24T04:18:30.281Z,2.27
2019-03-24T04:20:58.692Z,2.75
2019-03-24T04:23:27.149Z,2.60
2019-03-24T04:25:55.534Z,2.10
2019-03-24T04:28:23.946Z,2.00
2019-03-24T04:30:52.355Z,2.15
2019-03-24T04:33:20.764Z,2.65
2019-03-24T04:35:49.199Z,2.42
2019-03-24T04:38:17.620Z,2.40
2019-03-24T04:40:46.040Z,2.08
2019-03-24T04:43:14.460Z,2.30
2019-03-24T04:45:42.888Z,2.50
2019-03-24T04:48:11.307Z,2.47
2019-03-24T04:50:39.741Z,2.33
2019-03-24T04:53:08.156Z,2.65
2019-03-24T04:55:36.588Z,2.58
2019-03-24T04:58:04.995Z,3.33
2019-03-24T05:00:34.436Z,2.47
2019-03-24T05:03:02.854Z,3.33
2019-03-24T05:05:31.282Z,2.87
2019-03-24T05:07:59.728Z,2.70
2019-03-24T05:10:28.140Z,2.47
2019-03-24T05:12:57.303Z,4.15
2019-03-24T05:15:25.722Z,3.20
2019-03-24T05:17:54.130Z,2.50
2019-03-24T05:20:22.539Z,4.00
2019-03-24T05:22:50.973Z,3.30
2019-03-24T05:25:19.411Z,3.05
2019-03-24T05:27:47.831Z,3.30
2019-03-24T05:30:35.626Z,3.12
2019-03-24T05:33:04.032Z,3.55
2019-03-24T05:35:32.472Z,3.87
2019-03-24T05:38:00.879Z,2.70
2019-03-24T05:40:29.255Z,1.95
2019-03-24T05:42:57.639Z,2.77
2019-03-24T05:45:25.995Z,3.10
2019-03-24T05:47:54.375Z,3.05
2019-03-24T05:50:23.025Z,2.72
2019-03-24T05:52:51.355Z,3.75
2019-03-24T05:55:19.711Z,3.72
2019-03-24T05:57:48.097Z,3.20
2019-03-24T06:00:16.765Z,2.80
2019-03-24T06:02:45.152Z,2.87
2019-03-24T06:05:13.531Z,3.10
2019-03-24T06:07:41.908Z,3.22
2019-03-24T06:10:10.284Z,3.05
2019-03-24T06:12:38.704Z,3.08
2019-03-24T06:15:08.088Z,4.28
2019-03-24T06:17:36.556Z,3.30
2019-03-24T06:20:05.968Z,3.10
2019-03-24T06:22:34.407Z,3.37
2019-03-24T06:25:02.824Z,2.87
2019-03-24T06:27:31.187Z,2.58
2019-03-24T06:29:59.560Z,2.85
2019-03-24T06:32:27.975Z,2.90
2019-03-24T06:34:56.415Z,2.52
2019-03-24T06:37:24.823Z,2.67
2019-03-24T06:39:53.539Z,3.08
2019-03-24T06:42:24.955Z,2.65
2019-03-24T06:44:53.365Z,2.20
2019-03-24T06:47:21.819Z,2.45
2019-03-24T06:49:50.301Z,3.45
2019-03-24T06:52:18.791Z,3.12
2019-03-24T06:54:47.177Z,3.08
2019-03-24T06:57:16.960Z,2.67
2019-03-24T06:59:45.662Z,2.77
2019-03-24T07:02:17.150Z,3.47
2019-03-24T07:04:45.587Z,3.05
2019-03-24T07:07:13.964Z,2.60
2019-03-24T07:09:42.420Z,2.67
2019-03-24T07:12:10.936Z,3.08
2019-03-24T07:14:39.366Z,2.40
2019-03-24T07:17:07.817Z,2.58
2019-03-24T07:19:36.202Z,2.70
2019-03-24T07:22:04.579Z,2.20
2019-03-24T07:24:32.965Z,3.05
2019-03-24T07:27:01.376Z,2.85
2019-03-24T07:29:51.127Z,2.75
2019-03-24T07:32:19.483Z,3.05
2019-03-24T07:34:47.928Z,3.17
2019-03-24T07:37:16.291Z,2.10
2019-03-24T07:39:44.851Z,2.77
2019-03-24T07:42:13.358Z,1.92
2019-03-24T07:44:41.754Z,2.50
2019-03-24T07:47:13.390Z,2.00
2019-03-24T07:49:42.682Z,2.65
2019-03-24T07:52:11.119Z,2.20
2019-03-24T07:54:39.499Z,1.90
2019-03-24T07:57:07.864Z,2.62
2019-03-24T07:59:36.239Z,1.87
2019-03-24T08:02:04.603Z,2.60
2019-03-24T08:04:32.984Z,1.95
2019-03-24T08:07:01.367Z,2.33
2019-03-24T08:09:29.730Z,2.40
2019-03-24T08:11:58.128Z,2.58
2019-03-24T08:14:27.148Z,2.58
2019-03-24T08:16:56.681Z,2.50
2019-03-24T08:19:25.046Z,2.50
2019-03-24T08:21:53.462Z,2.33
2019-03-24T08:24:21.860Z,1.82
2019-03-24T08:26:50.295Z,2.90
2019-03-24T08:29:18.760Z,2.77
2019-03-24T08:31:47.148Z,2.10
2019-03-24T08:34:15.553Z,1.85
2019-03-24T08:36:44.042Z,2.37
2019-03-24T08:39:12.475Z,2.42
2019-03-24T08:41:40.857Z,1.60
2019-03-24T08:44:09.267Z,2.05
2019-03-24T08:46:37.699Z,2.00
2019-03-24T08:49:06.067Z,2.52
2019-03-24T08:51:34.544Z,1.90
2019-03-24T08:54:02.972Z,1.92
2019-03-24T08:56:31.410Z,1.85
2019-03-24T08:58:59.827Z,1.92
2019-03-24T09:01:28.259Z,1.90
2019-03-24T09:03:56.677Z,1.70
2019-03-24T09:06:25.119Z,2.15
2019-03-24T09:08:53.772Z,2.00
2019-03-24T09:11:30.788Z,1.65
2019-03-24T09:13:52.290Z,1.87
2019-03-24T09:16:20.715Z,2.00
2019-03-24T09:18:52.845Z,1.67
2019-03-24T09:21:19.670Z,1.62
2019-03-24T09:23:48.285Z,1.45
2019-03-24T09:26:16.655Z,2.00
2019-03-24T09:28:45.015Z,1.62
2019-03-24T09:31:13.424Z,1.87
2019-03-24T09:33:41.838Z,1.72
2019-03-24T09:36:10.273Z,2.00
2019-03-24T09:38:38.684Z,1.35
2019-03-24T09:41:07.123Z,1.72
2019-03-24T09:43:35.524Z,1.45
2019-03-24T09:46:03.966Z,1.98
2019-03-24T09:48:32.380Z,2.00
2019-03-24T09:51:00.815Z,2.05
2019-03-24T09:53:29.185Z,1.40
2019-03-24T09:55:59.191Z,1.45
2019-03-24T09:58:27.631Z,1.60
2019-03-24T10:00:56.045Z,1.95
2019-03-24T10:03:24.480Z,1.75
2019-03-24T10:05:52.857Z,2.40
2019-03-24T10:08:21.255Z,1.98
2019-03-24T10:10:49.622Z,2.17
2019-03-24T10:13:18.017Z,1.87
2019-03-24T10:15:46.380Z,1.90
2019-03-24T10:18:14.799Z,2.02
2019-03-24T10:20:43.228Z,1.70
2019-03-24T10:23:11.631Z,1.70
2019-03-24T10:25:40.083Z,1.62
2019-03-24T10:28:08.480Z,1.60
2019-03-24T10:30:36.919Z,1.90
2019-03-24T10:33:05.332Z,1.70
2019-03-24T10:35:33.782Z,1.60
2019-03-24T10:38:02.219Z,2.10
2019-03-24T10:40:30.623Z,1.35
2019-03-24T10:42:59.035Z,1.60
2019-03-24T10:45:27.452Z,1.55
2019-03-24T10:47:55.885Z,1.60
2019-03-24T10:50:24.484Z,2.00
2019-03-24T10:52:52.918Z,1.17
2019-03-24T10:55:21.321Z,1.85
2019-03-24T10:57:49.683Z,1.57
2019-03-24T11:00:19.619Z,1.50
2019-03-24T11:02:48.027Z,1.50
2019-03-24T11:05:16.459Z,2.10
2019-03-24T11:07:44.869Z,1.60
2019-03-24T11:10:13.296Z,1.70
2019-03-24T11:12:41.703Z,1.35
2019-03-24T11:15:10.148Z,1.50
2019-03-24T11:17:38.561Z,1.60
2019-03-24T11:20:07.616Z,1.47
2019-03-24T11:22:36.047Z,2.00
2019-03-24T11:25:06.262Z,1.42
2019-03-24T11:27:34.691Z,1.45
2019-03-24T11:30:03.303Z,1.60
2019-03-24T11:32:31.742Z,1.12
2019-03-24T11:35:00.295Z,1.90
2019-03-24T11:37:28.973Z,1.55
2019-03-24T11:39:57.384Z,2.00
2019-03-24T11:42:25.827Z,1.90
2019-03-24T11:44:54.263Z,1.55
2019-03-24T11:47:26.834Z,1.80
2019-03-24T11:49:52.751Z,1.70
2019-03-24T11:52:21.159Z,1.60
2019-03-24T11:54:49.567Z,1.20
2019-03-24T11:57:18.320Z,1.50
2019-03-24T11:59:47.408Z,1.47
2019-03-24T12:02:15.770Z,1.60
2019-03-24T12:04:44.132Z,1.40
2019-03-24T12:07:12.511Z,1.57
2019-03-24T12:09:40.878Z,1.70
2019-03-24T12:12:10.386Z,1.77
2019-03-24T12:14:38.752Z,2.85
2019-03-24T12:17:07.127Z,1.62
2019-03-24T12:19:35.492Z,2.10
2019-03-24T12:22:04.892Z,1.32
2019-03-24T12:24:33.285Z,2.20
2019-03-24T12:27:01.835Z,1.92
2019-03-24T12:29:30.219Z,1.75
2019-03-24T12:31:58.654Z,2.00
2019-03-24T12:34:27.011Z,1.42
2019-03-24T12:36:55.366Z,1.65
2019-03-24T12:39:23.777Z,2.30
2019-03-24T12:41:52.194Z,2.20
2019-03-24T12:44:20.629Z,2.30
2019-03-24T12:46:49.083Z,2.08
2019-03-24T12:49:17.506Z,2.83
2019-03-24T12:51:45.943Z,2.17
2019-03-24T12:54:14.359Z,2.08
2019-03-24T12:56:42.839Z,2.37
2019-03-24T12:59:11.273Z,2.75
2019-03-24T13:01:39.690Z,2.40
2019-03-24T13:04:08.080Z,2.00
2019-03-24T13:06:36.435Z,2.27
2019-03-24T13:09:06.120Z,2.55
2019-03-24T13:11:34.560Z,2.22
2019-03-24T13:14:02.985Z,2.40
2019-03-24T13:16:31.409Z,1.95
2019-03-24T13:18:59.824Z,2.35
2019-03-24T13:21:28.271Z,2.27
2019-03-24T13:23:56.859Z,1.87
2019-03-24T13:26:25.289Z,2.12
2019-03-24T13:28:54.307Z,2.40
2019-03-24T13:31:22.738Z,2.50
2019-03-24T13:33:51.146Z,2.22
2019-03-24T13:36:19.569Z,2.33
2019-03-24T13:38:48.002Z,2.40
2019-03-24T13:41:16.423Z,4.22
2019-03-24T13:43:44.829Z,2.62
2019-03-24T13:46:13.195Z,2.80
2019-03-24T13:48:42.728Z,2.35
2019-03-24T13:51:11.132Z,1.87
2019-03-24T13:53:39.567Z,2.33
2019-03-24T13:56:07.949Z,2.30
2019-03-24T13:58:36.376Z,2.45
2019-03-24T14:01:06.513Z,2.67
2019-03-24T14:03:34.973Z,2.50
2019-03-24T14:06:03.352Z,2.50
2019-03-24T14:08:31.709Z,2.27
2019-03-24T14:11:00.153Z,3.25
2019-03-24T14:13:29.541Z,2.95
2019-03-24T14:15:57.972Z,2.42
2019-03-24T14:18:26.352Z,3.42
2019-03-24T14:20:54.760Z,2.90
2019-03-24T14:23:23.192Z,2.40
2019-03-24T14:25:51.615Z,2.83
2019-03-24T14:28:20.059Z,2.75
2019-03-24T14:30:48.731Z,2.50
2019-03-24T14:33:17.175Z,2.10
2019-03-24T14:35:45.585Z,1.92
2019-03-24T14:38:14.023Z,1.85
2019-03-24T14:40:42.460Z,1.50
2019-03-24T14:43:10.892Z,1.70
2019-03-24T14:45:39.316Z,1.70
2019-03-24T14:48:07.775Z,2.08
2019-03-24T14:50:36.213Z,2.35
2019-03-24T14:53:04.612Z,1.90
2019-03-24T14:55:33.020Z,1.65
2019-03-24T14:58:01.463Z,1.67
2019-03-24T15:00:36.420Z,2.50
2019-03-24T15:03:04.788Z,2.15
2019-03-24T15:05:33.224Z,3.02
2019-03-24T15:08:02.452Z,2.85
2019-03-24T15:10:30.933Z,3.08
2019-03-24T15:12:59.364Z,2.60
2019-03-24T15:15:27.778Z,2.90
2019-03-24T15:17:56.211Z,3.42
2019-03-24T15:20:24.652Z,4.00
2019-03-24T15:22:53.090Z,2.42
2019-03-24T15:25:21.504Z,1.70
2019-03-24T15:27:49.932Z,1.82
2019-03-24T15:30:18.340Z,3.47
2019-03-24T15:32:46.783Z,1.90
2019-03-24T15:35:15.327Z,3.22
2019-03-24T15:37:44.037Z,2.33
2019-03-24T15:40:13.277Z,2.45
2019-03-24T15:42:41.683Z,3.83
2019-03-24T15:45:10.227Z,2.17
2019-03-24T15:47:39.752Z,2.83
2019-03-24T15:50:08.188Z,2.08
2019-03-24T15:52:38.877Z,1.57
2019-03-24T15:55:07.321Z,2.37
2019-03-24T15:57:36.817Z,1.95
2019-03-24T16:00:06.741Z,1.85
2019-03-24T16:02:35.161Z,2.05
2019-03-24T16:05:04.659Z,2.50
2019-03-24T16:07:34.664Z,1.70
2019-03-24T16:10:03.850Z,1.50
2019-03-24T16:12:32.283Z,1.60
2019-03-24T16:15:01.299Z,1.98
2019-03-24T16:17:29.735Z,2.22
2019-03-24T16:19:58.147Z,2.10
2019-03-24T16:22:26.583Z,2.40
2019-03-24T16:24:54.974Z,2.35
2019-03-24T16:27:26.111Z,2.67
2019-03-24T16:29:54.557Z,5.00
2019-03-24T16:32:23.769Z,3.98
2019-03-24T16:34:52.209Z,3.83
2019-03-24T16:37:20.626Z,3.95
2019-03-24T16:39:49.061Z,4.40
2019-03-24T16:42:19.049Z,3.92
2019-03-24T16:44:47.477Z,5.77
2019-03-24T16:47:15.848Z,7.28
2019-03-24T16:49:44.438Z,7.90
2019-03-24T16:52:13.040Z,8.63
2019-03-24T16:54:41.442Z,8.33
2019-03-24T16:57:09.837Z,9.10
2019-03-24T16:59:38.207Z,7.92
2019-03-24T17:02:06.597Z,8.85
2019-03-24T17:04:34.977Z,7.37
2019-03-24T17:07:03.411Z,7.20
2019-03-24T17:09:33.287Z,4.78
2019-03-24T17:12:01.674Z,5.47
2019-03-24T17:14:30.058Z,3.92
2019-03-24T17:16:58.429Z,4.42
2019-03-24T17:19:30.159Z,3.98
2019-03-24T17:22:11.340Z,4.03
2019-03-24T17:24:41.280Z,4.70
2019-03-24T17:27:12.449Z,4.17
2019-03-24T17:29:41.723Z,3.92
2019-03-24T17:32:11.664Z,3.15
2019-03-24T17:34:40.025Z,3.60
2019-03-24T17:37:12.591Z,3.10
2019-03-24T17:39:39.291Z,2.30
2019-03-24T17:42:08.506Z,3.22
2019-03-24T17:44:40.701Z,2.72
2019-03-24T17:47:12.645Z,3.67
2019-03-24T17:49:40.999Z,3.40
2019-03-24T17:52:09.364Z,2.98
2019-03-24T17:54:37.755Z,4.20
2019-03-24T17:57:06.163Z,4.20
2019-03-24T17:59:34.535Z,3.87
2019-03-24T18:02:13.536Z,4.47
2019-03-24T18:04:33.025Z,3.47
2019-03-24T18:07:04.922Z,4.80
2019-03-24T18:09:33.086Z,4.42
2019-03-24T18:12:01.497Z,4.50
2019-03-24T18:14:29.931Z,4.42
2019-03-24T18:16:58.344Z,4.50
2019-03-24T18:19:26.738Z,3.50
2019-03-24T18:21:55.172Z,4.17
2019-03-24T18:24:23.583Z,4.40
2019-03-24T18:26:52.897Z,4.00
2019-03-24T18:29:22.619Z,4.45
2019-03-24T18:31:51.063Z,3.65
2019-03-24T18:34:19.491Z,3.60
2019-03-24T18:36:47.919Z,3.55
2019-03-24T18:39:16.346Z,3.75
2019-03-24T18:41:47.340Z,3.80
2019-03-24T18:44:16.411Z,3.12
2019-03-24T18:46:44.816Z,3.50
2019-03-24T18:49:13.270Z,4.65
2019-03-24T18:51:42.685Z,5.03
2019-03-24T18:54:11.751Z,4.80
2019-03-24T18:56:42.975Z,4.30
2019-03-24T18:59:31.896Z,4.80
2019-03-24T19:01:53.052Z,4.60
2019-03-24T19:04:24.246Z,5.28
2019-03-24T19:12:31.293Z,4.72
2019-03-24T19:15:00.959Z,5.47
2019-03-24T19:17:29.869Z,4.87
2019-03-24T19:20:01.234Z,5.33
2019-03-24T19:22:33.747Z,4.17
2019-03-24T19:25:06.280Z,4.85
2019-03-24T19:27:38.648Z,5.08
2019-03-24T19:30:15.202Z,3.87
2019-03-24T19:32:47.815Z,4.40
2019-03-24T19:35:18.338Z,3.65
2019-03-24T19:37:49.870Z,4.33
2019-03-24T19:42:56.657Z,4.97
2019-03-24T19:48:32.179Z,4.75
2019-03-24T19:51:07.053Z,4.62
2019-03-24T19:53:38.119Z,4.87
2019-03-24T19:56:13.797Z,4.10
2019-03-24T20:04:27.211Z,4.08
2019-03-24T20:07:05.106Z,3.50
2019-03-24T20:09:36.798Z,4.28
2019-03-24T20:12:06.225Z,3.40
2019-03-24T20:14:34.754Z,4.53
2019-03-24T20:17:03.167Z,4.10
2019-03-24T20:19:31.719Z,4.90
2019-03-24T20:22:00.401Z,4.45
2019-03-24T20:24:37.588Z,4.12
2019-03-24T20:27:06.297Z,3.72
2019-03-24T20:29:37.867Z,4.12
2019-03-24T20:32:06.321Z,3.30
2019-03-24T20:34:35.841Z,3.37
2019-03-24T20:37:24.618Z,3.00
2019-03-24T20:39:54.077Z,3.52
2019-03-24T20:42:22.503Z,3.92
2019-03-24T20:44:50.928Z,3.20
2019-03-24T20:47:19.381Z,3.30
2019-03-24T20:49:47.800Z,3.12
2019-03-24T20:52:16.346Z,2.80
2019-03-24T20:54:44.872Z,2.98
2019-03-24T20:57:13.280Z,3.58
2019-03-24T20:59:41.737Z,3.52
2019-03-24T21:02:11.728Z,3.17
2019-03-24T21:04:40.584Z,2.83
2019-03-24T21:07:09.004Z,3.35
2019-03-24T21:09:37.469Z,2.92
2019-03-24T21:12:05.969Z,3.08
2019-03-24T21:14:34.393Z,3.90
2019-03-24T21:17:02.815Z,2.92
2019-03-24T21:19:31.314Z,2.50
2019-03-24T21:22:05.367Z,2.80
2019-03-24T21:24:33.829Z,2.90
2019-03-24T21:27:02.370Z,2.67
2019-03-24T21:29:42.755Z,2.75
2019-03-24T21:32:16.058Z,2.75
2019-03-24T21:34:44.526Z,2.90
2019-03-24T21:37:12.948Z,3.22
2019-03-24T21:39:41.389Z,3.40
2019-03-24T21:42:11.384Z,2.75
2019-03-24T21:44:39.828Z,2.70
2019-03-24T21:47:14.374Z,2.72
2019-03-24T21:49:38.697Z,2.67
2019-03-24T21:52:12.067Z,2.75
2019-03-24T21:54:41.668Z,2.50
2019-03-24T21:57:10.103Z,2.47
2019-03-24T21:59:38.572Z,3.40
2019-03-24T22:02:07.133Z,2.83
2019-03-24T22:04:35.548Z,2.52
2019-03-24T22:07:28.603Z,3.25
2019-03-24T22:09:57.432Z,3.27
2019-03-24T22:12:25.908Z,3.05
2019-03-24T22:14:54.336Z,3.02
2019-03-24T22:17:22.810Z,3.25
2019-03-24T22:19:51.238Z,3.40
2019-03-24T22:22:19.732Z,3.10
2019-03-24T22:24:48.137Z,3.65
2019-03-24T22:27:16.583Z,4.30
2019-03-24T22:29:45.024Z,3.47
2019-03-24T22:32:13.500Z,4.08
2019-03-24T22:34:41.975Z,3.98
2019-03-24T22:37:15.825Z,3.85
2019-03-24T22:39:40.510Z,3.30
2019-03-24T22:42:08.961Z,3.92
2019-03-24T22:44:37.406Z,3.27
2019-03-24T22:47:05.814Z,3.42
2019-03-24T22:49:34.261Z,3.95
2019-03-24T22:52:07.147Z,3.05
2019-03-24T22:54:32.808Z,3.25
2019-03-24T22:57:01.371Z,3.20
2019-03-24T22:59:30.207Z,3.08
2019-03-24T23:01:58.672Z,3.47
2019-03-24T23:04:27.086Z,3.12
2019-03-24T23:06:55.536Z,3.20
2019-03-24T23:09:23.982Z,3.52
2019-03-24T23:11:52.463Z,3.47
2019-03-24T23:14:20.946Z,2.83
2019-03-24T23:16:49.435Z,2.67
2019-03-24T23:19:17.954Z,3.37
2019-03-24T23:21:46.369Z,3.35
2019-03-24T23:24:15.870Z,3.52
2019-03-24T23:26:44.831Z,3.00
2019-03-24T23:29:13.303Z,2.70
2019-03-24T23:31:41.748Z,3.00
2019-03-24T23:34:10.180Z,3.33
2019-03-24T23:36:38.649Z,3.85
2019-03-24T23:39:07.107Z,4.10
2019-03-24T23:41:35.569Z,3.30
2019-03-24T23:44:04.220Z,3.85
2019-03-24T23:46:33.020Z,3.20
2019-03-24T23:49:01.452Z,4.22
2019-03-24T23:51:29.932Z,4.08
2019-03-24T23:53:58.380Z,4.47
2019-03-24T23:56:26.820Z,4.00
2019-03-24T23:58:55.268Z,4.25
